Time;durP1;ratioP1;P1;durP2;ratioP2;P2;SDS_P1;SDS_P2;PMS_P1;PMS_P2;Temp;Humidity;BMP_temperature;BMP_pressure;BME280_temperature;BME280_humidity;BME280_pressure;Samples;Min_cycle;Max_cycle;Signal;HPM_P1;HPM_P2
2022/05/23 00:01:58;;;;;;;28.35;7.70;;;20.50;99.90;;;;;;5092140;28;20016;-75
2022/05/23 00:04:24;;;;;;;17.45;7.38;;;20.50;99.90;;;;;;5091799;28;20028;-74
2022/05/23 00:06:51;;;;;;;25.35;6.97;;;20.50;99.90;;;;;;5091961;28;20028;-75
2022/05/23 00:09:17;;;;;;;23.00;8.38;;;20.40;99.90;;;;;;5091517;28;20028;-74
2022/05/23 00:11:43;;;;;;;20.10;7.63;;;20.50;99.90;;;;;;5091619;28;20395;-74
2022/05/23 00:14:10;;;;;;;18.73;7.10;;;20.40;99.90;;;;;;5091628;28;20024;-74
2022/05/23 00:16:38;;;;;;;22.05;7.50;;;20.40;99.90;;;;;;5073909;28;20035;-75
2022/05/23 00:19:04;;;;;;;16.25;7.63;;;20.40;99.90;;;;;;5091889;28;20021;-75
2022/05/23 00:21:30;;;;;;;21.48;7.18;;;20.50;99.90;;;;;;5091365;28;20025;-75
2022/05/23 00:23:55;;;;;;;18.80;7.32;;;20.50;99.90;;;;;;5092072;28;20529;-75
2022/05/23 00:26:22;;;;;;;19.40;7.03;;;20.40;99.90;;;;;;5108235;28;20038;-75
2022/05/23 00:28:49;;;;;;;18.80;7.38;;;20.30;99.90;;;;;;5111752;28;20019;-75
2022/05/23 00:31:15;;;;;;;22.48;7.20;;;20.40;99.90;;;;;;5096562;28;20028;-75
2022/05/23 00:36:27;;;;;;;21.13;6.97;;;20.20;99.90;;;;;;5091655;28;20028;-75
2022/05/23 00:38:55;;;;;;;18.98;7.03;;;20.30;99.90;;;;;;5091727;28;20065;-74
2022/05/23 00:44:18;;;;;;;17.20;7.03;;;20.20;99.90;;;;;;5091454;28;20055;-75
2022/05/23 00:47:14;;;;;;;16.08;7.07;;;20.10;99.90;;;;;;5091042;28;20078;-75
2022/05/23 00:49:39;;;;;;;15.95;6.35;;;20.20;99.90;;;;;;5085457;28;20040;-74
2022/05/23 00:52:09;;;;;;;15.60;6.95;;;20.20;99.90;;;;;;5091814;28;20054;-74
2022/05/23 00:54:40;;;;;;;17.33;7.22;;;20.10;99.90;;;;;;5072893;28;20044;-74
2022/05/23 00:57:10;;;;;;;20.95;7.60;;;20.20;99.90;;;;;;5091145;28;20196;-75
2022/05/23 00:59:36;;;;;;;17.67;7.05;;;20.10;99.90;;;;;;5090872;28;20412;-75
2022/05/23 01:02:03;;;;;;;16.75;7.40;;;20.10;99.90;;;;;;5094502;28;20544;-74
2022/05/23 01:04:31;;;;;;;19.58;7.43;;;20.10;99.90;;;;;;5094853;28;20046;-75
2022/05/23 01:06:57;;;;;;;15.63;6.97;;;20.20;99.90;;;;;;5096281;28;20052;-75
2022/05/23 01:09:26;;;;;;;17.48;7.00;;;20.10;99.90;;;;;;5115083;28;20020;-75
2022/05/23 01:11:53;;;;;;;19.75;7.00;;;19.80;99.90;;;;;;5115425;28;20024;-75
2022/05/23 01:14:20;;;;;;;21.83;6.13;;;19.70;99.90;;;;;;5096673;28;20023;-74
2022/05/23 01:16:46;;;;;;;15.30;6.22;;;19.80;99.90;;;;;;5115124;28;20024;-74
2022/05/23 01:19:12;;;;;;;30.45;7.10;;;19.70;99.90;;;;;;5115276;28;20020;-75
2022/05/23 01:21:57;;;;;;;17.27;6.32;;;19.50;99.90;;;;;;5094454;28;20032;-75
2022/05/23 01:24:25;;;;;;;14.27;6.07;;;19.50;99.90;;;;;;5074141;28;20522;-75
2022/05/23 01:26:53;;;;;;;19.77;6.43;;;19.50;99.90;;;;;;5092665;28;20149;-75
2022/05/23 01:29:19;;;;;;;17.15;6.70;;;19.30;99.90;;;;;;5114657;28;20034;-74
2022/05/23 01:31:45;;;;;;;26.52;7.13;;;19.30;99.90;;;;;;5115667;28;20415;-75
2022/05/23 01:34:10;;;;;;;23.33;6.68;;;19.40;99.90;;;;;;5114771;28;20107;-74
2022/05/23 01:36:36;;;;;;;23.27;6.70;;;19.30;99.90;;;;;;5114611;28;20034;-75
2022/05/23 01:39:02;;;;;;;20.00;6.28;;;19.30;99.90;;;;;;5096461;28;20028;-75
2022/05/23 01:41:28;;;;;;;25.08;6.65;;;19.30;99.90;;;;;;5094134;28;20013;-74
2022/05/23 01:43:54;;;;;;;17.35;5.55;;;19.20;99.90;;;;;;5093930;28;20030;-75
2022/05/23 01:46:20;;;;;;;18.08;5.95;;;19.10;99.90;;;;;;5083937;28;20110;-74
2022/05/23 01:48:46;;;;;;;18.38;5.47;;;19.10;99.90;;;;;;5094141;28;20016;-75
2022/05/23 01:51:12;;;;;;;19.63;6.13;;;19.10;99.90;;;;;;5094107;28;20429;-74
2022/05/23 01:53:38;;;;;;;15.60;5.70;;;19.20;99.90;;;;;;5093571;28;20086;-75
2022/05/23 01:56:07;;;;;;;15.98;6.10;;;19.10;99.90;;;;;;5075633;28;20024;-75
2022/05/23 02:01:17;;;;;;;14.93;5.38;;;19.10;99.90;;;;;;5093586;28;20421;-75
2022/05/23 02:03:44;;;;;;;14.77;5.22;;;19.20;99.90;;;;;;5093817;28;20024;-75
2022/05/23 02:06:11;;;;;;;17.52;5.00;;;19.10;99.90;;;;;;5093979;28;20020;-75
2022/05/23 02:08:37;;;;;;;12.52;4.88;;;19.10;99.90;;;;;;5094153;28;20103;-75
2022/05/23 02:11:05;;;;;;;15.02;5.38;;;19.10;99.90;;;;;;5093568;28;20056;-74
2022/05/23 02:13:37;;;;;;;15.32;4.80;;;19.10;99.90;;;;;;5093267;28;20062;-75
2022/05/23 02:16:03;;;;;;;14.82;5.22;;;19.10;99.90;;;;;;5093465;28;20028;-74
2022/05/23 02:18:29;;;;;;;11.50;4.43;;;19.00;99.90;;;;;;5093412;28;20081;-75
2022/05/23 02:20:55;;;;;;;13.02;4.07;;;19.10;99.90;;;;;;5093522;28;20028;-75
2022/05/23 02:23:21;;;;;;;14.63;5.22;;;19.20;99.90;;;;;;5093426;28;20043;-74
2022/05/23 02:25:46;;;;;;;13.98;4.90;;;19.20;99.90;;;;;;5092868;28;20032;-74
2022/05/23 02:28:13;;;;;;;10.40;4.53;;;19.20;99.90;;;;;;5093723;28;20039;-75
2022/05/23 02:30:38;;;;;;;18.25;5.40;;;19.20;99.90;;;;;;5086472;28;20035;-74
2022/05/23 02:33:04;;;;;;;15.02;4.82;;;19.20;99.90;;;;;;5073214;28;20025;-74
2022/05/23 02:35:30;;;;;;;11.27;4.85;;;19.10;99.90;;;;;;5086743;28;20025;-75
2022/05/23 02:37:57;;;;;;;15.43;4.47;;;19.20;99.90;;;;;;5093071;28;20028;-75
2022/05/23 02:40:23;;;;;;;14.43;5.18;;;19.20;99.90;;;;;;5092887;28;20055;-74
2022/05/23 02:42:49;;;;;;;17.83;5.68;;;19.20;99.90;;;;;;5093073;28;20028;-75
2022/05/23 02:45:14;;;;;;;16.92;4.78;;;19.20;99.90;;;;;;5093020;28;20019;-75
2022/05/23 02:47:40;;;;;;;11.63;4.72;;;19.20;99.90;;;;;;5093286;28;20422;-75
2022/05/23 02:50:08;;;;;;;14.30;4.95;;;19.20;99.90;;;;;;5092220;28;20044;-75
2022/05/23 02:52:34;;;;;;;18.38;4.93;;;19.00;99.90;;;;;;5092247;28;20050;-75
2022/05/23 02:55:00;;;;;;;12.68;4.53;;;18.90;99.90;;;;;;5092696;28;20034;-75
2022/05/23 02:57:26;;;;;;;21.05;6.00;;;18.90;99.90;;;;;;5093037;28;20016;-74
2022/05/23 02:59:52;;;;;;;21.77;5.45;;;18.70;99.90;;;;;;5092423;28;20039;-75
2022/05/23 03:05:02;;;;;;;15.43;4.43;;;19.00;99.90;;;;;;5092349;28;20147;-75
2022/05/23 03:07:27;;;;;;;17.98;4.70;;;18.70;99.90;;;;;;5092314;28;20136;-75
2022/05/23 03:09:53;;;;;;;14.23;4.60;;;18.60;99.90;;;;;;5092526;28;20104;-75
2022/05/23 03:12:19;;;;;;;19.70;4.10;;;18.50;99.90;;;;;;5092642;28;20502;-75
2022/05/23 03:14:45;;;;;;;10.90;3.17;;;18.60;99.90;;;;;;5092357;28;20032;-75
2022/05/23 03:17:10;;;;;;;15.07;2.83;;;18.40;99.90;;;;;;5092417;28;20024;-75
2022/05/23 03:19:37;;;;;;;7.07;2.95;;;18.50;99.90;;;;;;5087274;28;20462;-75
2022/05/23 03:27:37;;;;;;;6.72;2.35;;;18.40;99.90;;;;;;5092625;28;20093;-75
2022/05/23 03:30:05;;;;;;;5.13;2.10;;;18.40;99.90;;;;;;5074002;28;20028;-75
2022/05/23 03:32:30;;;;;;;8.43;2.60;;;18.30;99.90;;;;;;5092360;28;20035;-75
2022/05/23 03:34:56;;;;;;;8.93;2.90;;;18.30;99.90;;;;;;5092166;28;20024;-74
2022/05/23 03:37:22;;;;;;;9.05;2.40;;;18.20;99.90;;;;;;5091882;28;20479;-75
2022/05/23 03:39:48;;;;;;;8.82;2.50;;;18.30;99.90;;;;;;5091981;28;20039;-75
2022/05/23 03:42:14;;;;;;;11.30;3.17;;;18.30;99.90;;;;;;5092108;28;20491;-75
2022/05/23 03:44:39;;;;;;;9.00;2.70;;;18.30;99.90;;;;;;5091761;28;20057;-75
2022/05/23 03:47:05;;;;;;;7.57;2.38;;;18.40;99.90;;;;;;5092013;28;20498;-75
2022/05/23 03:49:32;;;;;;;15.05;3.78;;;18.40;99.90;;;;;;5094471;28;20394;-74
2022/05/23 03:51:59;;;;;;;7.13;2.38;;;18.40;99.90;;;;;;5091270;28;20024;-75
2022/05/23 03:54:25;;;;;;;9.80;3.15;;;18.20;99.90;;;;;;5070462;28;20075;-75
2022/05/23 03:56:51;;;;;;;8.80;2.70;;;18.00;99.90;;;;;;5071477;28;20021;-75
2022/05/23 03:59:17;;;;;;;12.90;3.30;;;18.20;99.90;;;;;;5071976;28;20530;-74
2022/05/23 04:01:42;;;;;;;10.90;3.05;;;17.90;99.90;;;;;;5071758;28;20022;-74
2022/05/23 04:04:08;;;;;;;10.23;3.20;;;17.90;99.90;;;;;;5071318;28;20074;-75
2022/05/23 04:06:35;;;;;;;12.30;3.15;;;18.00;99.90;;;;;;5071431;28;20095;-74
2022/05/23 04:09:01;;;;;;;13.38;3.15;;;18.10;99.90;;;;;;5071397;28;20024;-75
2022/05/23 04:11:27;;;;;;;8.35;3.13;;;18.30;99.90;;;;;;5066924;28;20020;-75
2022/05/23 04:13:52;;;;;;;10.07;3.38;;;18.30;99.90;;;;;;5091595;28;20024;-75
2022/05/23 04:16:18;;;;;;;8.32;3.10;;;18.10;99.90;;;;;;5091958;28;20368;-75
2022/05/23 04:18:44;;;;;;;9.38;3.22;;;18.10;99.90;;;;;;5091186;28;20466;-75
2022/05/23 04:21:10;;;;;;;12.57;2.88;;;18.00;99.90;;;;;;5071305;28;20017;-74
2022/05/23 04:23:35;;;;;;;10.82;2.72;;;18.00;99.90;;;;;;5071283;28;20514;-75
2022/05/23 04:26:09;;;;;;;7.85;3.10;;;18.00;99.90;;;;;;5071150;28;20057;-75
2022/05/23 04:28:36;;;;;;;7.38;2.67;;;18.00;99.90;;;;;;5071199;28;20020;-75
2022/05/23 04:31:02;;;;;;;10.98;3.42;;;18.10;99.90;;;;;;5071698;28;20024;-75
2022/05/23 04:36:13;;;;;;;9.02;3.05;;;18.20;99.90;;;;;;5071400;28;20028;-74
2022/05/23 04:38:39;;;;;;;12.52;2.83;;;18.20;99.90;;;;;;5073477;28;20037;-76
2022/05/23 04:41:07;;;;;;;7.78;2.60;;;18.00;99.90;;;;;;5087106;28;20043;-74
2022/05/23 04:43:33;;;;;;;11.50;2.78;;;18.00;99.90;;;;;;5073137;28;20021;-75
2022/05/23 04:45:59;;;;;;;8.70;2.88;;;18.00;99.90;;;;;;5063517;28;20029;-75
2022/05/23 04:51:09;;;;;;;9.23;2.95;;;18.10;99.90;;;;;;5069357;28;20287;-79
2022/05/23 04:53:35;;;;;;;12.25;2.80;;;18.00;99.90;;;;;;5073434;28;20481;-75
2022/05/23 04:56:01;;;;;;;9.07;3.20;;;18.00;99.90;;;;;;5085261;28;20039;-74
2022/05/23 04:58:28;;;;;;;12.13;3.45;;;18.10;99.90;;;;;;5075388;28;20464;-74
2022/05/23 05:00:54;;;;;;;9.20;2.97;;;18.10;99.90;;;;;;5091835;28;20095;-76
2022/05/23 05:03:20;;;;;;;9.43;2.90;;;18.10;99.90;;;;;;5089338;28;20031;-75
2022/05/23 05:05:46;;;;;;;12.15;3.35;;;18.00;99.90;;;;;;5089703;28;20027;-75
2022/05/23 05:08:12;;;;;;;9.27;2.97;;;18.10;99.90;;;;;;5085975;28;20040;-75
2022/05/23 05:10:38;;;;;;;8.07;2.65;;;18.00;99.90;;;;;;5080927;28;20028;-75
2022/05/23 05:13:04;;;;;;;8.75;3.35;;;18.00;99.90;;;;;;5097108;28;20053;-79
2022/05/23 05:15:29;;;;;;;11.43;3.35;;;17.90;99.90;;;;;;5093582;28;20143;-76
2022/05/23 06:58:42;;;;;;;15.23;4.18;;;17.40;99.90;;;;;;5434827;23;20057;-75
2022/05/23 07:01:08;;;;;;;11.00;3.30;;;17.40;99.90;;;;;;4984064;28;20018;-75
2022/05/23 07:03:33;;;;;;;11.88;3.22;;;17.30;99.90;;;;;;5011277;28;20053;-75
2022/05/23 07:14:16;;;;;;;15.93;3.83;;;17.40;99.90;;;;;;4992812;28;20053;-75
2022/05/23 07:16:42;;;;;;;13.35;3.47;;;17.50;99.90;;;;;;4991816;28;20022;-75
2022/05/23 07:19:07;;;;;;;13.13;3.40;;;17.20;99.90;;;;;;4975961;28;20026;-75
2022/05/23 07:21:33;;;;;;;12.00;3.47;;;17.40;99.90;;;;;;4991096;28;20402;-75
2022/05/23 07:23:59;;;;;;;15.05;3.08;;;17.30;99.90;;;;;;4992809;28;20038;-75
2022/05/23 07:26:25;;;;;;;10.35;3.33;;;17.30;99.90;;;;;;4990664;28;20069;-75
2022/05/23 07:28:52;;;;;;;12.77;3.60;;;17.30;99.90;;;;;;4973768;28;20034;-75
2022/05/23 07:31:18;;;;;;;13.35;3.78;;;17.40;99.90;;;;;;4995361;28;20424;-75
2022/05/23 07:33:45;;;;;;;15.85;3.67;;;17.50;99.90;;;;;;4992390;28;20041;-75
2022/05/23 07:36:12;;;;;;;17.10;4.32;;;17.50;99.90;;;;;;4991141;28;20093;-75
2022/05/23 07:38:38;;;;;;;15.77;3.30;;;17.50;99.90;;;;;;4972346;28;20121;-75
2022/05/23 07:41:04;;;;;;;15.23;3.95;;;17.40;99.90;;;;;;4995216;28;20545;-75
2022/05/23 07:43:35;;;;;;;13.68;3.90;;;17.50;99.90;;;;;;4998575;28;20030;-75
2022/05/23 07:46:08;;;;;;;13.60;3.55;;;17.40;99.90;;;;;;4992764;28;20093;-75
2022/05/23 07:48:34;;;;;;;11.63;3.63;;;17.40;99.90;;;;;;4992646;28;20503;-75
2022/05/23 07:50:59;;;;;;;11.00;3.40;;;17.40;99.90;;;;;;4996968;28;20031;-75
2022/05/23 08:01:49;;;;;;;14.00;3.33;;;17.60;99.90;;;;;;4932613;29;20122;-75
2022/05/23 08:04:16;;;;;;;19.27;3.78;;;17.60;99.90;;;;;;4931043;29;20598;-75
2022/05/23 08:06:43;;;;;;;11.10;3.58;;;17.60;99.90;;;;;;4930601;29;20542;-75
2022/05/23 08:09:09;;;;;;;14.23;3.58;;;17.60;99.90;;;;;;4928333;29;20036;-75
2022/05/23 08:11:40;;;;;;;13.27;3.63;;;17.70;99.90;;;;;;4935920;29;20575;-75
2022/05/23 08:14:05;;;;;;;16.10;3.95;;;17.60;99.90;;;;;;4933831;29;20039;-75
2022/05/23 08:16:31;;;;;;;14.50;4.00;;;17.70;99.90;;;;;;4935952;29;20024;-75
2022/05/23 08:18:58;;;;;;;15.25;3.35;;;17.70;99.90;;;;;;4920885;29;20064;-76
2022/05/23 08:21:25;;;;;;;16.73;4.75;;;17.60;99.90;;;;;;4931895;29;20038;-75
2022/05/23 08:23:51;;;;;;;12.18;3.15;;;17.40;99.90;;;;;;4921512;29;20166;-75
2022/05/23 08:26:16;;;;;;;16.13;3.17;;;17.40;99.90;;;;;;4939039;29;20083;-75
2022/05/23 08:28:42;;;;;;;9.48;3.28;;;17.60;99.90;;;;;;4934850;29;20539;-75
2022/05/23 08:31:08;;;;;;;13.02;3.42;;;17.80;99.90;;;;;;4933395;29;20407;-75
2022/05/23 08:33:34;;;;;;;13.00;3.13;;;17.50;99.90;;;;;;4986798;28;20038;-76
2022/05/23 08:36:00;;;;;;;8.75;2.85;;;17.60;99.90;;;;;;4993010;28;20097;-76
2022/05/23 08:38:26;;;;;;;18.65;4.15;;;17.50;99.90;;;;;;4993363;28;20042;-74
2022/05/23 08:41:14;;;;;;;17.48;3.25;;;17.40;99.90;;;;;;4995018;28;20478;-75
2022/05/23 08:43:51;;;;;;;12.35;3.03;;;17.60;99.90;;;;;;4992797;28;20080;-75
2022/05/23 08:46:34;;;;;;;14.60;3.40;;;17.70;99.90;;;;;;5005166;28;20034;-76
2022/05/23 08:49:13;;;;;;;14.52;3.08;;;18.10;99.90;;;;;;4992693;28;20050;-76
2022/05/23 08:52:10;;;;;;;12.82;3.40;;;18.10;99.90;;;;;;4992338;28;20030;-75
2022/05/23 08:54:54;;;;;;;11.73;3.20;;;18.00;99.90;;;;;;4991828;28;20042;-75
2022/05/23 08:57:28;;;;;;;13.85;3.47;;;18.20;99.90;;;;;;4994747;28;20496;-75
2022/05/23 08:59:59;;;;;;;15.63;3.05;;;18.20;99.90;;;;;;4990845;28;20031;-75
2022/05/23 09:03:03;;;;;;;12.90;3.70;;;18.20;99.90;;;;;;4993173;28;20019;-75
2022/05/23 09:05:33;;;;;;;11.55;2.72;;;18.10;99.90;;;;;;4971303;28;20053;-76
2022/05/23 09:08:04;;;;;;;16.90;3.30;;;18.30;99.90;;;;;;4994512;28;20019;-75
2022/05/23 09:10:54;;;;;;;12.25;3.70;;;18.20;99.90;;;;;;4991623;28;20034;-75
2022/05/23 09:13:21;;;;;;;13.80;3.45;;;18.10;99.90;;;;;;4994468;28;20019;-74
2022/05/23 09:15:51;;;;;;;15.30;3.88;;;18.00;99.90;;;;;;4992906;28;20430;-75
2022/05/23 09:18:26;;;;;;;12.63;3.72;;;18.20;99.90;;;;;;4994735;28;20084;-75
2022/05/23 09:20:56;;;;;;;14.30;3.50;;;17.90;99.90;;;;;;4996907;28;20045;-75
2022/05/23 09:23:29;;;;;;;14.25;3.63;;;17.90;99.90;;;;;;4996218;28;20065;-75
2022/05/23 09:25:59;;;;;;;14.73;3.10;;;17.90;99.90;;;;;;4996977;28;20030;-74
2022/05/23 09:28:31;;;;;;;12.35;3.35;;;18.30;99.90;;;;;;5009804;28;20136;-75
2022/05/23 09:31:01;;;;;;;8.48;2.65;;;18.50;99.90;;;;;;4997159;28;20045;-75
2022/05/23 09:33:31;;;;;;;9.00;2.65;;;18.30;99.90;;;;;;4993253;28;20030;-75
2022/05/23 09:36:20;;;;;;;8.32;2.70;;;18.80;99.90;;;;;;4986676;28;20033;-75
2022/05/23 09:38:54;;;;;;;10.95;2.25;;;19.30;99.90;;;;;;4992657;28;20405;-75
2022/05/23 09:47:50;;;;;;;10.55;2.17;;;19.10;99.90;;;;;;4992621;28;20061;-74
2022/05/23 09:50:36;;;;;;;7.90;2.08;;;19.10;99.90;;;;;;4995365;28;20030;-75
2022/05/23 09:53:02;;;;;;;7.97;2.25;;;19.00;99.90;;;;;;4991604;28;20031;-76
2022/05/23 09:55:31;;;;;;;11.13;2.50;;;18.80;99.90;;;;;;4992851;28;20077;-75
2022/05/23 09:58:07;;;;;;;8.60;2.10;;;18.70;99.90;;;;;;4991268;28;20053;-75
2022/05/23 10:00:35;;;;;;;12.05;2.13;;;18.80;99.90;;;;;;4993923;28;20097;-75
2022/05/23 10:03:03;;;;;;;6.75;1.90;;;19.00;99.90;;;;;;4991756;28;20027;-75
2022/05/23 10:05:39;;;;;;;10.07;2.15;;;19.20;99.90;;;;;;4993756;28;20494;-75
2022/05/23 10:08:39;;;;;;;6.70;2.20;;;19.40;99.90;;;;;;4991585;28;20491;-75
2022/05/23 10:11:22;;;;;;;8.35;2.33;;;19.70;99.90;;;;;;4933563;29;20126;-75
2022/05/23 10:13:59;;;;;;;6.97;2.10;;;19.80;99.90;;;;;;4931356;29;20075;-75
2022/05/23 10:16:30;;;;;;;7.30;1.85;;;19.60;99.90;;;;;;4941807;29;20132;-75
2022/05/23 10:19:05;;;;;;;8.77;2.78;;;20.20;99.90;;;;;;4931166;29;20039;-75
2022/05/23 10:21:37;;;;;;;10.25;2.60;;;20.40;99.90;;;;;;4932440;29;20068;-75
2022/05/23 10:24:05;;;;;;;;;;;20.20;99.90;;;;;;4930067;29;20032;-75
2022/05/23 10:26:42;;;;;;;14.38;3.90;;;19.90;99.90;;;;;;4945555;29;20383;-75
2022/05/23 10:29:27;;;;;;;11.18;3.35;;;20.10;99.90;;;;;;4931643;29;20058;-75
2022/05/23 10:32:08;;;;;;;14.80;3.45;;;20.30;99.90;;;;;;4915787;29;20098;-75
2022/05/23 10:34:39;;;;;;;12.43;3.17;;;19.90;99.90;;;;;;4931589;29;20036;-75
2022/05/23 10:37:19;;;;;;;10.48;2.58;;;19.90;99.90;;;;;;4929964;29;20028;-75
2022/05/23 10:42:32;;;;;;;6.57;2.03;;;19.80;99.90;;;;;;4931225;29;20039;-75
2022/05/23 10:45:28;;;;;;;10.55;2.78;;;19.80;99.90;;;;;;4932642;29;20036;-75
2022/05/23 10:48:31;;;;;;;5.15;1.80;;;19.60;99.90;;;;;;4988820;28;20034;-75
2022/05/23 10:51:15;;;;;;;10.63;2.13;;;20.10;99.90;;;;;;4933029;29;20513;-75
2022/05/23 10:54:09;;;;;;;8.13;1.95;;;20.20;99.90;;;;;;4933107;29;20118;-75
2022/05/23 10:57:12;;;;;;;7.68;2.35;;;20.40;99.90;;;;;;4839595;29;20073;-75
2022/05/23 11:00:03;;;;;;;3.83;1.30;;;20.60;99.90;;;;;;4839615;29;20054;-75
2022/05/23 11:02:40;;;;;;;5.85;2.00;;;20.50;99.90;;;;;;4854831;29;20045;-74
2022/05/23 11:05:32;;;;;;;7.72;2.22;;;20.30;99.90;;;;;;4842275;29;20054;-74
2022/05/23 11:08:27;;;;;;;7.25;2.28;;;20.20;99.90;;;;;;4840055;29;20056;-74
2022/05/23 11:11:01;;;;;;;10.57;1.77;;;19.80;99.90;;;;;;4821049;29;20050;-75
2022/05/23 11:13:36;;;;;;;6.22;1.60;;;19.60;99.90;;;;;;4821650;29;20046;-75
2022/05/23 11:16:05;;;;;;;9.07;2.10;;;19.20;99.90;;;;;;4823461;29;20045;-75
2022/05/23 11:18:57;;;;;;;13.32;2.25;;;18.90;99.90;;;;;;4840214;29;20108;-75
2022/05/23 11:21:31;;;;;;;7.32;2.25;;;18.90;99.90;;;;;;4802932;29;20563;-75
2022/05/23 13:37:37;;;;;;;14.52;2.40;;;20.10;99.90;;;;;;5150298;23;20117;-75
2022/05/23 13:40:15;;;;;;;9.40;2.05;;;20.40;99.90;;;;;;4969230;28;20035;-75
2022/05/23 13:42:42;;;;;;;6.90;1.98;;;20.50;99.90;;;;;;4972190;28;20058;-75
2022/05/23 13:45:20;;;;;;;7.10;2.05;;;20.40;99.90;;;;;;4962492;28;20114;-76
2022/05/23 13:47:57;;;;;;;10.55;1.98;;;20.10;99.90;;;;;;4955690;28;20031;-75
2022/05/23 13:50:42;;;;;;;10.73;1.90;;;20.10;99.90;;;;;;4955282;28;20086;-75
2022/05/23 13:53:22;;;;;;;15.50;2.45;;;20.10;99.90;;;;;;4971533;28;20026;-75
2022/05/23 13:55:50;;;;;;;7.93;1.95;;;19.90;99.90;;;;;;4974856;28;20469;-75
2022/05/23 13:58:29;;;;;;;10.75;2.58;;;19.80;99.90;;;;;;4974387;28;20498;-75
2022/05/23 14:00:56;;;;;;;10.13;2.63;;;19.80;99.90;;;;;;4974104;28;20062;-75
2022/05/23 14:03:35;;;;;;;16.23;2.20;;;19.70;99.90;;;;;;4955448;28;20023;-75
2022/05/23 14:06:07;;;;;;;10.43;1.98;;;19.70;99.90;;;;;;4955425;28;20031;-76
2022/05/23 14:08:38;;;;;;;7.60;1.70;;;19.90;99.90;;;;;;4954999;28;20642;-75
2022/05/23 14:11:17;;;;;;;9.63;2.47;;;19.90;99.90;;;;;;4955390;28;20038;-75
2022/05/23 14:13:44;;;;;;;11.30;2.50;;;20.00;99.90;;;;;;4954987;28;20031;-76
2022/05/23 14:16:15;;;;;;;6.45;2.10;;;20.00;99.90;;;;;;4955066;28;20055;-75
2022/05/23 14:18:41;;;;;;;9.38;1.90;;;20.40;99.90;;;;;;4955126;28;20019;-75
2022/05/23 14:21:30;;;;;;;11.35;2.10;;;20.90;98.90;;;;;;4954928;28;20027;-76
2022/05/23 14:23:56;;;;;;;15.68;2.65;;;21.50;97.40;;;;;;4961437;28;20031;-76
2022/05/23 14:26:21;;;;;;;8.77;2.35;;;21.80;97.30;;;;;;4963649;28;20031;-75
2022/05/23 14:28:51;;;;;;;9.68;1.98;;;22.00;96.00;;;;;;4954562;28;20020;-75
2022/05/23 14:31:46;;;;;;;12.95;2.25;;;22.10;94.40;;;;;;4954505;28;20108;-75
2022/05/23 14:34:25;;;;;;;9.95;2.47;;;22.10;94.00;;;;;;4953962;28;20458;-75
2022/05/23 14:36:57;;;;;;;10.80;2.00;;;22.10;92.00;;;;;;4942868;28;20052;-75
2022/05/23 14:39:32;;;;;;;13.98;2.28;;;22.40;91.80;;;;;;4935078;29;20031;-76
2022/05/23 14:42:20;;;;;;;10.05;2.45;;;22.30;91.80;;;;;;4934152;29;20039;-75
2022/05/23 14:45:05;;;;;;;12.35;2.33;;;22.20;92.60;;;;;;4935321;29;20024;-76
2022/05/23 14:47:31;;;;;;;11.75;2.78;;;22.00;92.10;;;;;;4935095;29;20118;-75
2022/05/23 14:50:18;;;;;;;11.32;2.03;;;21.80;92.50;;;;;;4935480;29;20482;-76
2022/05/23 14:55:17;;;;;;;15.00;2.30;;;21.90;92.90;;;;;;4935061;29;20031;-76
2022/05/23 14:55:50;;;;;;;7.53;2.22;;;22.50;92.60;;;;;;4934655;29;20043;-75
2022/05/23 15:01:03;;;;;;;11.07;2.67;;;22.30;91.30;;;;;;4935818;29;20106;-78
2022/05/23 15:03:44;;;;;;;10.23;2.03;;;22.60;90.30;;;;;;4936000;29;20468;-75
2022/05/23 15:06:09;;;;;;;6.47;1.73;;;22.40;90.80;;;;;;4954767;29;20387;-76
2022/05/23 15:08:36;;;;;;;16.20;2.47;;;22.70;90.90;;;;;;4954475;29;20033;-75
2022/05/23 15:11:04;;;;;;;6.15;1.63;;;22.60;90.10;;;;;;4953389;29;20030;-75
2022/05/23 15:13:33;;;;;;;8.05;1.73;;;23.00;89.90;;;;;;4952755;29;20019;-76
2022/05/23 15:16:02;;;;;;;6.80;1.77;;;22.60;88.00;;;;;;4953774;28;20019;-75
2022/05/23 15:18:31;;;;;;;8.00;2.08;;;22.30;88.20;;;;;;4944953;29;20035;-76
2022/05/23 15:20:57;;;;;;;7.00;2.15;;;22.30;89.40;;;;;;4947448;29;20031;-75
2022/05/23 15:23:23;;;;;;;7.32;1.95;;;22.30;89.70;;;;;;4938637;28;20030;-75
2022/05/23 15:25:49;;;;;;;8.55;2.08;;;22.20;88.40;;;;;;4953249;29;20098;-75
2022/05/23 15:28:15;;;;;;;9.27;1.80;;;22.00;87.20;;;;;;4947660;29;20115;-75
2022/05/23 15:30:41;;;;;;;10.52;2.22;;;22.00;88.30;;;;;;4945298;29;20055;-75
2022/05/23 15:33:07;;;;;;;8.57;2.28;;;22.20;88.10;;;;;;4936081;29;20024;-75
2022/05/23 15:35:33;;;;;;;9.20;2.25;;;22.40;86.30;;;;;;4951624;29;20023;-75
2022/05/23 15:37:59;;;;;;;7.20;2.00;;;22.30;86.90;;;;;;4953606;29;20031;-75
2022/05/23 15:40:26;;;;;;;7.13;1.92;;;22.10;87.70;;;;;;4945595;29;20020;-75
2022/05/23 15:42:52;;;;;;;11.63;2.20;;;22.10;88.00;;;;;;4945888;29;20470;-75
2022/05/23 15:45:24;;;;;;;7.82;1.95;;;22.50;90.10;;;;;;4938453;29;20027;-75
2022/05/23 15:47:49;;;;;;;11.85;2.28;;;22.70;87.20;;;;;;4950235;29;20102;-75
2022/05/23 15:50:18;;;;;;;6.50;1.88;;;22.60;88.40;;;;;;4944181;29;20503;-75
2022/05/23 15:52:45;;;;;;;8.50;2.22;;;22.80;88.20;;;;;;4942534;29;20039;-75
2022/05/23 15:55:11;;;;;;;9.73;2.75;;;23.00;86.00;;;;;;4948239;29;20031;-75
2022/05/23 15:57:44;;;;;;;8.65;1.65;;;22.90;86.50;;;;;;4937673;28;20074;-76
2022/05/23 16:00:15;;;;;;;11.57;1.88;;;22.50;87.20;;;;;;4949131;28;20074;-75
2022/05/23 16:02:42;;;;;;;8.88;1.95;;;22.20;89.40;;;;;;4943728;29;20027;-75
2022/05/23 16:05:09;;;;;;;10.00;2.15;;;22.30;87.20;;;;;;4939605;28;20443;-76
2022/05/23 16:07:35;;;;;;;8.27;1.98;;;22.50;86.90;;;;;;4950777;29;20055;-75
2022/05/23 16:10:02;;;;;;;8.10;1.80;;;22.60;87.20;;;;;;4938460;29;20513;-75
2022/05/23 16:12:29;;;;;;;7.30;2.05;;;22.90;85.00;;;;;;4946845;29;20019;-76
2022/05/23 16:14:57;;;;;;;12.73;2.38;;;23.00;84.80;;;;;;4945485;29;20036;-76
2022/05/23 16:17:23;;;;;;;4.80;1.80;;;22.80;83.60;;;;;;4939701;29;20078;-75
2022/05/23 16:19:49;;;;;;;6.13;1.83;;;22.80;84.90;;;;;;4949962;29;20102;-75
2022/05/23 16:22:19;;;;;;;5.32;1.30;;;22.80;82.70;;;;;;4946353;29;20543;-76
2022/05/23 16:24:45;;;;;;;7.45;1.85;;;22.50;83.00;;;;;;4943216;29;20028;-75
2022/05/23 16:27:12;;;;;;;4.03;1.48;;;22.40;84.10;;;;;;4947509;29;20086;-75
2022/05/23 16:29:38;;;;;;;5.15;1.35;;;22.20;83.60;;;;;;4936586;29;20020;-75
2022/05/23 16:32:04;;;;;;;6.65;1.67;;;22.10;83.30;;;;;;4953215;28;20034;-75
2022/05/23 16:37:14;;;;;;;6.22;1.77;;;22.10;83.40;;;;;;4955468;28;20055;-75
2022/05/23 16:39:40;;;;;;;108.10;4.43;;;22.10;84.10;;;;;;4941688;29;20028;-75
2022/05/23 16:42:06;;;;;;;7.22;1.60;;;22.10;84.50;;;;;;4954083;29;20099;-75
2022/05/23 16:44:32;;;;;;;7.53;1.73;;;22.10;83.80;;;;;;4945408;29;20030;-75
2022/05/23 16:46:57;;;;;;;8.90;2.25;;;22.00;83.90;;;;;;4945764;29;20040;-74
2022/05/23 16:49:23;;;;;;;5.30;1.42;;;22.00;84.00;;;;;;4951270;29;20034;-76
2022/05/23 16:51:49;;;;;;;8.25;1.83;;;21.90;83.60;;;;;;4955577;29;20395;-75
2022/05/23 16:54:15;;;;;;;7.93;1.50;;;21.80;83.90;;;;;;4942452;29;20075;-75
2022/05/23 16:56:42;;;;;;;7.03;1.90;;;21.90;84.80;;;;;;4949549;28;20023;-75
2022/05/23 16:59:09;;;;;;;8.15;1.67;;;21.80;84.10;;;;;;4949548;29;20019;-75
2022/05/23 17:01:35;;;;;;;5.65;1.35;;;21.70;84.90;;;;;;4942834;28;20092;-74
2022/05/23 17:04:02;;;;;;;5.65;1.70;;;21.70;85.70;;;;;;4953517;29;20495;-75
2022/05/23 17:06:28;;;;;;;8.00;1.92;;;21.70;85.80;;;;;;4950986;29;20019;-74
2022/05/23 17:08:55;;;;;;;7.97;1.60;;;21.70;85.80;;;;;;4946635;29;20551;-75
2022/05/23 17:11:22;;;;;;;5.80;1.10;;;21.60;86.00;;;;;;4944537;29;20024;-77
2022/05/23 17:13:48;;;;;;;5.85;1.48;;;21.50;86.30;;;;;;4953461;29;20038;-79
2022/05/23 17:16:14;;;;;;;7.07;1.70;;;21.40;86.70;;;;;;4942236;29;20404;-75
2022/05/23 17:18:40;;;;;;;9.02;2.03;;;21.40;87.60;;;;;;4945274;29;20419;-75
2022/05/23 17:21:06;;;;;;;6.70;1.67;;;21.30;86.80;;;;;;4950959;29;20073;-75
2022/05/23 17:23:35;;;;;;;8.57;1.67;;;21.30;86.70;;;;;;4956619;28;20031;-76
2022/05/23 17:26:03;;;;;;;6.72;1.40;;;21.30;87.80;;;;;;4940415;28;20047;-75
2022/05/23 17:28:29;;;;;;;7.00;1.58;;;21.30;87.80;;;;;;4951072;28;20019;-75
2022/05/23 17:30:56;;;;;;;6.68;1.58;;;21.20;87.90;;;;;;4946459;29;20027;-76
2022/05/23 17:33:23;;;;;;;4.70;1.55;;;21.30;88.20;;;;;;4942950;29;20390;-75
2022/05/23 17:35:48;;;;;;;7.38;1.60;;;21.30;88.30;;;;;;4949930;28;20066;-75
2022/05/23 17:38:14;;;;;;;6.32;1.80;;;21.30;88.60;;;;;;4952782;29;20027;-79
2022/05/23 17:40:40;;;;;;;5.63;1.67;;;21.10;89.60;;;;;;4951015;29;20032;-75
2022/05/23 17:43:06;;;;;;;7.82;1.58;;;21.10;89.30;;;;;;4944416;28;20455;-75